createdAt,value
2018-07-04T00:01:52.857Z,4.20
2018-07-04T00:04:32.379Z,4.40
2018-07-04T00:07:12.013Z,5.20
2018-07-04T00:09:51.341Z,4.53
2018-07-04T00:12:30.890Z,4.00
2018-07-04T00:15:10.505Z,4.17
2018-07-04T00:17:50.229Z,4.00
2018-07-04T00:20:35.045Z,5.20
2018-07-04T00:23:14.697Z,4.77
2018-07-04T00:25:54.873Z,5.00
2018-07-04T00:28:34.309Z,5.20
2018-07-04T00:31:13.749Z,5.00
2018-07-04T00:33:53.904Z,5.03
2018-07-04T00:36:33.484Z,5.80
2018-07-04T00:39:13.095Z,5.83
2018-07-04T00:41:52.728Z,5.20
2018-07-04T00:44:32.304Z,5.70
2018-07-04T00:47:12.000Z,5.00
2018-07-04T00:49:51.298Z,4.30
2018-07-04T00:52:30.964Z,5.60
2018-07-04T00:55:10.577Z,4.73
2018-07-04T00:57:50.237Z,4.47
2018-07-04T01:00:29.704Z,4.60
2018-07-04T01:03:09.258Z,5.20
2018-07-04T01:05:48.797Z,4.00
2018-07-04T01:08:28.477Z,4.40
2018-07-04T01:11:07.979Z,4.40
2018-07-04T01:13:47.607Z,5.30
2018-07-04T01:16:27.492Z,5.07
2018-07-04T01:19:07.156Z,4.67
2018-07-04T01:21:46.642Z,4.70
2018-07-04T01:24:26.818Z,4.57
2018-07-04T01:27:06.247Z,4.50
2018-07-04T01:29:45.950Z,4.13
2018-07-04T01:32:26.161Z,5.07
2018-07-04T01:35:05.790Z,4.80
2018-07-04T01:37:45.333Z,4.57
2018-07-04T01:40:25.396Z,4.57
2018-07-04T01:43:04.916Z,5.70
2018-07-04T01:45:44.627Z,4.80
2018-07-04T01:48:24.228Z,4.77
2018-07-04T01:51:03.647Z,4.63
2018-07-04T01:53:43.110Z,4.80
2018-07-04T01:56:22.822Z,5.50
2018-07-04T01:59:02.478Z,5.80
2018-07-04T02:01:41.941Z,5.00
2018-07-04T02:04:21.546Z,5.20
2018-07-04T02:07:01.229Z,4.13
2018-07-04T02:09:40.752Z,5.40
2018-07-04T02:12:20.359Z,5.53
2018-07-04T02:15:00.200Z,4.93
2018-07-04T02:17:39.708Z,6.17
2018-07-04T02:20:19.404Z,5.70
2018-07-04T02:22:58.794Z,5.10
2018-07-04T02:25:38.745Z,4.77
2018-07-04T02:28:18.382Z,5.20
2018-07-04T02:30:57.814Z,5.53
2018-07-04T02:33:37.853Z,5.97
2018-07-04T02:36:17.344Z,5.90
2018-07-04T02:38:56.807Z,5.20
2018-07-04T02:41:37.194Z,5.50
2018-07-04T02:44:16.836Z,5.50
2018-07-04T02:46:56.460Z,5.70
2018-07-04T02:49:36.926Z,5.63
2018-07-04T02:52:16.533Z,5.77
2018-07-04T02:54:56.081Z,5.40
2018-07-04T02:57:35.970Z,5.80
2018-07-04T03:00:15.530Z,5.30
2018-07-04T03:02:54.967Z,7.03
2018-07-04T03:05:34.545Z,22.17
2018-07-04T03:08:14.235Z,29.30
2018-07-04T03:10:53.776Z,7.50
2018-07-04T03:13:33.228Z,6.50
2018-07-04T03:16:12.891Z,7.73
2018-07-04T03:18:52.513Z,6.07
2018-07-04T03:21:32.156Z,6.03
2018-07-04T03:24:11.621Z,6.43
2018-07-04T03:26:51.061Z,6.20
2018-07-04T03:29:30.721Z,6.50
2018-07-04T03:32:10.321Z,5.77
2018-07-04T03:34:49.783Z,6.57
2018-07-04T03:37:29.413Z,6.90
2018-07-04T03:40:09.903Z,5.35
2018-07-04T03:42:49.293Z,6.13
2018-07-04T03:45:28.884Z,6.43
2018-07-04T03:48:08.989Z,6.47
2018-07-04T03:50:48.581Z,6.20
2018-07-04T03:53:28.073Z,6.50
2018-07-04T03:56:08.431Z,5.73
2018-07-04T03:58:48.092Z,6.60
2018-07-04T04:01:27.877Z,7.30
2018-07-04T04:04:08.078Z,7.83
2018-07-04T04:06:47.734Z,6.13
2018-07-04T04:09:27.236Z,6.53
2018-07-04T04:12:06.810Z,7.17
2018-07-04T04:14:46.385Z,6.50
2018-07-04T04:17:25.948Z,5.93
2018-07-04T04:20:05.578Z,5.93
2018-07-04T04:22:45.196Z,6.40
2018-07-04T04:25:24.825Z,6.93
2018-07-04T04:28:04.470Z,5.93
2018-07-04T04:30:43.930Z,6.33
2018-07-04T04:33:23.345Z,7.50
2018-07-04T04:36:02.992Z,6.70
2018-07-04T04:38:42.455Z,7.50
2018-07-04T04:41:21.972Z,6.80
2018-07-04T04:44:01.345Z,6.43
2018-07-04T04:46:41.254Z,6.00
2018-07-04T04:49:20.862Z,6.77
2018-07-04T04:52:00.940Z,6.60
2018-07-04T04:54:40.849Z,7.03
2018-07-04T04:57:20.327Z,7.30
2018-07-04T04:59:59.860Z,7.20
2018-07-04T05:02:40.057Z,8.13
2018-07-04T05:05:19.424Z,6.93
2018-07-04T05:07:59.436Z,7.30
2018-07-04T05:10:39.669Z,7.30
2018-07-04T05:13:19.332Z,6.50
2018-07-04T05:15:58.893Z,6.83
2018-07-04T05:18:39.110Z,6.50
2018-07-04T05:21:18.835Z,7.08
2018-07-04T05:23:58.484Z,6.40
2018-07-04T05:26:38.356Z,6.20
2018-07-04T05:29:17.926Z,6.30
2018-07-04T05:31:57.612Z,6.60
2018-07-04T05:34:36.945Z,6.83
2018-07-04T05:37:17.053Z,7.43
2018-07-04T05:39:56.618Z,6.13
2018-07-04T05:42:36.061Z,7.33
2018-07-04T05:45:15.423Z,6.37
2018-07-04T05:47:55.062Z,6.00
2018-07-04T05:50:34.506Z,5.70
2018-07-04T05:53:14.078Z,6.10
2018-07-04T05:55:53.494Z,6.20
2018-07-04T05:58:33.076Z,6.47
2018-07-04T06:01:12.713Z,7.33
2018-07-04T06:03:52.236Z,7.17
2018-07-04T06:06:31.847Z,6.93
2018-07-04T06:09:11.980Z,12.00
2018-07-04T06:11:51.605Z,9.87
2018-07-04T06:14:31.253Z,7.50
2018-07-04T06:17:11.491Z,8.00
2018-07-04T06:19:51.156Z,6.77
2018-07-04T06:22:30.625Z,7.00
2018-07-04T06:25:10.715Z,13.37
2018-07-04T06:27:50.385Z,10.63
2018-07-04T06:30:30.009Z,8.13
2018-07-04T06:33:10.043Z,7.00
2018-07-04T06:35:49.651Z,16.93
2018-07-04T06:38:23.131Z,7.60
2018-07-04T06:40:50.377Z,7.13
2018-07-04T06:43:17.630Z,6.57
2018-07-04T06:45:44.880Z,6.47
2018-07-04T06:48:12.538Z,6.60
2018-07-04T06:50:40.077Z,6.50
2018-07-04T06:53:07.753Z,5.70
2018-07-04T06:55:35.032Z,5.80
2018-07-04T06:58:02.266Z,6.20
2018-07-04T07:00:29.515Z,6.07
2018-07-04T07:03:02.840Z,6.13
2018-07-04T07:05:42.661Z,6.57
2018-07-04T07:08:22.199Z,5.83
2018-07-04T07:11:01.626Z,5.57
2018-07-04T07:13:41.868Z,7.93
2018-07-04T07:16:21.464Z,8.83
2018-07-04T07:19:01.043Z,6.80
2018-07-04T07:21:41.211Z,6.17
2018-07-04T07:24:20.750Z,8.60
2018-07-04T07:27:00.344Z,7.40
2018-07-04T07:29:40.244Z,6.80
2018-07-04T07:32:19.881Z,6.60
2018-07-04T07:34:59.548Z,8.00
2018-07-04T07:37:38.999Z,6.43
2018-07-04T07:40:18.753Z,6.37
2018-07-04T07:42:58.355Z,5.50
2018-07-04T07:45:38.017Z,6.40
2018-07-04T07:48:17.369Z,5.60
2018-07-04T07:50:57.012Z,6.30
2018-07-04T07:53:36.633Z,5.50
2018-07-04T07:56:16.352Z,6.67
2018-07-04T07:58:55.831Z,6.73
2018-07-04T08:01:35.268Z,5.47
2018-07-04T08:04:15.009Z,6.30
2018-07-04T08:06:54.523Z,6.70
2018-07-04T08:09:34.077Z,6.10
2018-07-04T08:12:14.207Z,5.60
2018-07-04T08:14:53.787Z,6.50
2018-07-04T08:17:33.309Z,5.97
2018-07-04T08:20:13.362Z,7.30
2018-07-04T08:22:53.000Z,6.23
2018-07-04T08:25:32.553Z,6.70
2018-07-04T08:28:13.012Z,5.93
2018-07-04T08:30:52.457Z,6.00
2018-07-04T08:33:32.130Z,6.50
2018-07-04T08:36:12.454Z,6.10
2018-07-04T08:38:52.017Z,6.47
2018-07-04T08:41:31.504Z,6.20
2018-07-04T08:44:11.483Z,5.47
2018-07-04T08:46:50.989Z,5.67
2018-07-04T08:49:30.457Z,6.70
2018-07-04T08:52:09.993Z,6.40
2018-07-04T08:54:49.549Z,5.77
2018-07-04T08:57:28.961Z,6.50
2018-07-04T09:00:08.395Z,6.10
2018-07-04T09:02:48.130Z,5.90
2018-07-04T09:05:27.786Z,6.20
2018-07-04T09:08:07.892Z,6.60
2018-07-04T09:10:47.366Z,5.33
2018-07-04T09:13:26.976Z,6.00
2018-07-04T09:16:07.198Z,5.27
2018-07-04T09:18:46.654Z,5.60
2018-07-04T09:21:26.203Z,6.67
2018-07-04T09:24:06.649Z,5.83
2018-07-04T09:26:46.232Z,6.73
2018-07-04T09:29:25.707Z,5.50
2018-07-04T09:32:05.374Z,5.90
2018-07-04T09:34:45.001Z,5.40
2018-07-04T09:37:24.617Z,4.97
2018-07-04T09:40:04.132Z,6.13
2018-07-04T09:42:43.738Z,5.50
2018-07-04T09:45:23.388Z,5.73
2018-07-04T09:48:02.794Z,5.37
2018-07-04T09:50:42.308Z,5.20
2018-07-04T09:53:21.842Z,4.87
2018-07-04T09:56:01.469Z,6.03
2018-07-04T09:58:40.967Z,5.60
2018-07-04T10:01:22.565Z,5.13
2018-07-04T10:04:02.277Z,5.17
2018-07-04T10:06:42.304Z,4.67
2018-07-04T10:09:21.876Z,5.10
2018-07-04T10:12:01.453Z,5.13
2018-07-04T10:14:40.985Z,4.60
2018-07-04T10:17:20.727Z,5.10
2018-07-04T10:20:00.337Z,4.43
2018-07-04T10:22:40.053Z,4.30
2018-07-04T10:25:19.538Z,4.40
2018-07-04T10:27:59.162Z,4.70
2018-07-04T10:30:39.060Z,5.47
2018-07-04T10:33:18.782Z,4.73
2018-07-04T10:35:58.351Z,5.50
2018-07-04T10:38:38.699Z,5.13
2018-07-04T10:41:18.121Z,4.80
2018-07-04T10:43:57.756Z,4.90
2018-07-04T10:46:37.939Z,3.70
2018-07-04T10:49:17.386Z,4.67
2018-07-04T10:51:57.044Z,4.80
2018-07-04T10:54:36.971Z,4.53
2018-07-04T10:57:17.023Z,4.40
2018-07-04T10:59:56.592Z,3.53
2018-07-04T11:02:36.110Z,4.17
2018-07-04T11:05:15.724Z,3.70
2018-07-04T11:07:55.229Z,3.57
2018-07-04T11:10:34.860Z,3.87
2018-07-04T11:13:14.292Z,3.27
2018-07-04T11:15:53.957Z,3.43
2018-07-04T11:18:33.529Z,3.73
2018-07-04T11:21:13.001Z,3.87
2018-07-04T11:23:52.553Z,3.73
2018-07-04T11:26:32.058Z,3.23
2018-07-04T11:29:11.693Z,3.10
2018-07-04T11:31:51.208Z,3.60
2018-07-04T11:34:30.630Z,3.57
2018-07-04T11:37:10.886Z,4.03
2018-07-04T11:39:50.436Z,3.60
2018-07-04T11:42:30.024Z,3.60
2018-07-04T11:45:10.193Z,4.07
2018-07-04T11:47:43.873Z,4.20
2018-07-04T11:50:11.158Z,4.10
2018-07-04T11:52:39.102Z,3.10
2018-07-04T11:55:06.417Z,3.17
2018-07-04T11:57:33.778Z,3.97
2018-07-04T12:00:01.013Z,2.80
2018-07-04T12:02:28.290Z,3.73
2018-07-04T12:05:01.499Z,2.90
2018-07-04T12:07:34.997Z,3.43
2018-07-04T12:10:02.242Z,3.00
2018-07-04T12:12:29.497Z,3.20
2018-07-04T12:14:56.741Z,3.40
2018-07-04T12:17:24.014Z,2.87
2018-07-04T12:19:51.260Z,3.30
2018-07-04T12:22:18.499Z,2.70
2018-07-04T12:24:45.764Z,2.90
2018-07-04T12:27:12.998Z,2.90
2018-07-04T12:29:40.849Z,3.33
2018-07-04T12:32:08.581Z,2.40
2018-07-04T12:34:35.971Z,3.30
2018-07-04T12:37:03.367Z,3.07
2018-07-04T12:39:30.615Z,2.13
2018-07-04T12:41:57.855Z,3.40
2018-07-04T12:44:25.126Z,3.37
2018-07-04T12:46:52.371Z,2.70
2018-07-04T12:49:26.200Z,2.93
2018-07-04T12:51:53.663Z,3.43
2018-07-04T12:54:59.425Z,3.00
2018-07-04T12:57:39.580Z,3.60
2018-07-04T13:00:19.165Z,3.27
2018-07-04T13:02:58.582Z,3.40
2018-07-04T13:05:38.408Z,3.50
2018-07-04T13:08:18.008Z,3.60
2018-07-04T13:10:57.650Z,3.17
2018-07-04T13:13:37.310Z,3.80
2018-07-04T13:16:16.913Z,4.20
2018-07-04T13:18:56.493Z,3.77
2018-07-04T13:21:36.101Z,4.23
2018-07-04T13:24:15.839Z,3.67
2018-07-04T13:26:55.402Z,4.20
2018-07-04T13:29:34.987Z,3.97
2018-07-04T13:32:14.725Z,4.60
2018-07-04T13:34:54.494Z,3.80
2018-07-04T13:37:34.019Z,4.23
2018-07-04T13:40:13.635Z,3.50
2018-07-04T13:42:53.055Z,3.80
2018-07-04T13:45:32.670Z,4.57
2018-07-04T13:48:12.419Z,4.07
2018-07-04T13:50:52.791Z,4.77
2018-07-04T13:53:32.190Z,4.00
2018-07-04T13:56:12.334Z,4.77
2018-07-04T13:58:51.941Z,3.97
2018-07-04T14:01:31.748Z,3.70
2018-07-04T14:04:11.885Z,3.70
2018-07-04T14:06:51.492Z,5.33
2018-07-04T14:09:31.712Z,5.17
2018-07-04T14:12:11.539Z,4.30
2018-07-04T14:14:51.142Z,4.10
2018-07-04T14:17:30.789Z,3.80
2018-07-04T14:20:11.081Z,3.23
2018-07-04T14:22:50.620Z,2.77
2018-07-04T14:25:30.159Z,5.37
2018-07-04T14:28:10.321Z,5.30
2018-07-04T14:30:50.252Z,4.83
2018-07-04T14:33:29.717Z,5.50
2018-07-04T14:36:09.460Z,3.70
2018-07-04T14:38:49.466Z,4.27
2018-07-04T14:41:29.205Z,6.07
2018-07-04T14:44:08.799Z,6.33
2018-07-04T14:46:48.693Z,4.50
2018-07-04T14:49:28.141Z,3.67
2018-07-04T14:52:08.328Z,3.90
2018-07-04T14:54:48.061Z,3.30
2018-07-04T14:57:27.707Z,3.40
2018-07-04T15:00:07.172Z,2.63
2018-07-04T15:02:47.718Z,2.17
2018-07-04T15:05:27.184Z,2.00
2018-07-04T15:08:06.749Z,1.70
2018-07-04T15:10:46.375Z,2.00
2018-07-04T15:13:25.939Z,2.20
2018-07-04T15:16:05.379Z,2.73
2018-07-04T15:18:44.910Z,2.40
2018-07-04T15:21:24.333Z,3.00
2018-07-04T15:24:03.922Z,2.50
2018-07-04T15:26:43.805Z,2.20
2018-07-04T15:29:23.411Z,3.83
2018-07-04T15:32:02.854Z,2.93
2018-07-04T15:34:42.667Z,2.80
2018-07-04T15:37:22.171Z,3.20
2018-07-04T15:40:01.856Z,3.30
2018-07-04T15:42:41.971Z,2.80
2018-07-04T15:45:21.404Z,2.93
2018-07-04T15:48:01.041Z,2.80
2018-07-04T15:50:41.318Z,3.37
2018-07-04T15:53:20.807Z,2.73
2018-07-04T15:56:00.333Z,2.80
2018-07-04T15:58:40.034Z,3.10
2018-07-04T16:01:19.654Z,3.20
2018-07-04T16:03:59.061Z,3.03
2018-07-04T16:06:38.792Z,2.72
2018-07-04T16:09:18.513Z,3.30
2018-07-04T16:11:58.103Z,3.10
2018-07-04T16:14:37.580Z,3.03
2018-07-04T16:17:16.996Z,3.73
2018-07-04T16:19:56.637Z,3.22
2018-07-04T16:22:36.164Z,2.90
2018-07-04T16:25:15.701Z,4.30
2018-07-04T16:27:55.254Z,6.03
2018-07-04T16:30:34.888Z,6.40
2018-07-04T16:33:14.539Z,3.80
2018-07-04T16:35:54.224Z,3.90
2018-07-04T16:38:34.034Z,3.40
2018-07-04T16:41:14.085Z,3.50
2018-07-04T16:43:53.635Z,3.43
2018-07-04T16:46:33.264Z,3.93
2018-07-04T16:49:13.278Z,3.63
2018-07-04T16:51:52.764Z,4.30
2018-07-04T16:54:32.249Z,3.87
2018-07-04T16:57:12.501Z,3.20
2018-07-04T16:59:52.842Z,3.40
2018-07-04T17:02:32.415Z,3.50
2018-07-04T17:05:12.597Z,3.53
2018-07-04T17:07:52.127Z,3.83
2018-07-04T17:10:31.928Z,4.40
2018-07-04T17:13:12.100Z,3.80
2018-07-04T17:15:51.661Z,3.90
2018-07-04T17:18:31.324Z,4.80
2018-07-04T17:21:11.132Z,4.30
2018-07-04T17:23:51.319Z,7.20
2018-07-04T17:26:30.846Z,4.77
2018-07-04T17:29:10.685Z,4.20
2018-07-04T17:31:50.421Z,4.30
2018-07-04T17:34:29.912Z,4.50
2018-07-04T17:37:09.750Z,4.07
2018-07-04T17:39:51.513Z,4.80
2018-07-04T17:42:31.162Z,4.73
2018-07-04T17:45:10.724Z,32.73
2018-07-04T17:47:51.421Z,5.80
2018-07-04T17:50:30.966Z,4.60
2018-07-04T17:53:10.594Z,4.30
2018-07-04T17:55:50.516Z,5.00
2018-07-04T17:58:30.446Z,4.33
2018-07-04T18:01:10.607Z,3.77
2018-07-04T18:03:51.724Z,9.00
2018-07-04T18:06:32.089Z,8.68
2018-07-04T18:09:12.014Z,5.20
2018-07-04T18:11:53.350Z,4.40
2018-07-04T18:14:32.828Z,6.37
2018-07-04T18:17:14.384Z,5.43
2018-07-04T18:19:53.961Z,7.70
2018-07-04T18:22:33.606Z,5.80
2018-07-04T18:25:13.933Z,5.00
2018-07-04T18:27:53.518Z,5.43
2018-07-04T18:30:33.290Z,4.70
2018-07-04T18:33:14.119Z,5.00
2018-07-04T18:35:53.631Z,4.43
2018-07-04T18:38:33.252Z,5.57
2018-07-04T18:41:13.467Z,5.07
2018-07-04T18:43:53.029Z,5.20
2018-07-04T18:46:32.505Z,6.10
2018-07-04T18:49:12.201Z,5.13
2018-07-04T18:51:51.767Z,4.80
2018-07-04T18:54:31.466Z,6.50
2018-07-04T18:57:11.082Z,20.13
2018-07-04T18:59:50.801Z,30.73
2018-07-04T19:02:30.386Z,33.03
2018-07-04T19:05:09.916Z,7.23
2018-07-04T19:07:49.441Z,7.77
2018-07-04T19:10:29.019Z,6.33
2018-07-04T19:13:08.525Z,6.47
2018-07-04T19:15:47.995Z,6.50
2018-07-04T19:18:27.433Z,5.80
2018-07-04T19:21:07.119Z,6.10
2018-07-04T19:23:47.104Z,5.27
2018-07-04T19:26:26.616Z,5.97
2018-07-04T19:29:06.089Z,4.50
2018-07-04T19:31:46.096Z,5.03
2018-07-04T19:34:25.586Z,5.70
2018-07-04T19:37:05.270Z,5.60
2018-07-04T19:39:45.372Z,5.77
2018-07-04T19:42:24.976Z,6.17
2018-07-04T19:45:04.639Z,5.60
2018-07-04T19:47:44.268Z,6.80
2018-07-04T19:50:23.882Z,6.20
2018-07-04T19:53:03.211Z,7.17
2018-07-04T19:55:42.799Z,7.00
2018-07-04T19:58:22.210Z,6.77
2018-07-04T20:01:01.784Z,7.57
2018-07-04T20:03:41.430Z,7.27
2018-07-04T20:06:21.078Z,7.00
2018-07-04T20:09:00.615Z,7.27
2018-07-04T20:11:40.208Z,6.73
2018-07-04T20:14:19.885Z,6.93
2018-07-04T20:16:59.591Z,6.53
2018-07-04T20:19:39.024Z,6.07
2018-07-04T20:22:18.704Z,7.20
2018-07-04T20:24:58.141Z,7.10
2018-07-04T20:27:37.833Z,6.67
2018-07-04T20:30:17.878Z,6.40
2018-07-04T20:32:57.387Z,7.57
2018-07-04T20:35:37.063Z,6.60
2018-07-04T20:38:16.998Z,8.07
2018-07-04T20:40:56.503Z,7.13
2018-07-04T20:43:35.957Z,7.70
2018-07-04T20:46:16.014Z,7.57
2018-07-04T20:48:55.671Z,7.40
2018-07-04T20:51:35.052Z,6.90
2018-07-04T20:54:14.736Z,6.90
2018-07-04T20:56:54.377Z,8.40
2018-07-04T20:59:33.832Z,8.60
2018-07-04T21:02:13.340Z,8.97
2018-07-04T21:04:52.840Z,8.70
2018-07-04T21:07:32.600Z,8.27
2018-07-04T21:10:12.139Z,8.80
2018-07-04T21:12:51.797Z,9.47
2018-07-04T21:15:31.107Z,9.23
2018-07-04T21:18:10.675Z,9.03
2018-07-04T21:20:50.268Z,9.23
2018-07-04T21:23:29.903Z,9.00
2018-07-04T21:26:09.420Z,9.40
2018-07-04T21:28:49.580Z,9.40
2018-07-04T21:31:29.116Z,9.20
2018-07-04T21:34:08.663Z,12.80
2018-07-04T21:36:48.723Z,10.77
2018-07-04T21:39:28.212Z,10.93
2018-07-04T21:42:07.764Z,10.23
2018-07-04T21:44:48.049Z,11.10
2018-07-04T21:47:27.649Z,9.50
2018-07-04T21:50:07.082Z,8.70
2018-07-04T21:52:46.792Z,8.70
2018-07-04T21:55:26.318Z,9.03
2018-07-04T21:58:05.903Z,9.17
2018-07-04T22:00:45.335Z,8.77
2018-07-04T22:03:25.004Z,8.10
2018-07-04T22:06:04.325Z,8.40
2018-07-04T22:08:43.893Z,9.33
2018-07-04T22:11:23.314Z,8.83
2018-07-04T22:14:02.944Z,8.27
2018-07-04T22:16:42.472Z,8.87
2018-07-04T22:19:22.188Z,10.00
2018-07-04T22:22:01.748Z,8.90
2018-07-04T22:24:41.404Z,8.93
2018-07-04T22:27:21.214Z,9.48
2018-07-04T22:30:00.608Z,9.43
2018-07-04T22:32:40.117Z,10.40
2018-07-04T22:35:21.100Z,10.30
2018-07-04T22:38:00.727Z,9.63
2018-07-04T22:40:40.105Z,9.70
2018-07-04T22:43:20.211Z,10.60
2018-07-04T22:45:59.796Z,12.37
2018-07-04T22:48:39.464Z,9.90
2018-07-04T22:51:19.657Z,10.93
2018-07-04T22:53:59.357Z,11.30
2018-07-04T22:56:39.033Z,12.30
2018-07-04T22:59:19.210Z,12.90
2018-07-04T23:01:58.684Z,10.53
2018-07-04T23:04:38.206Z,9.10
2018-07-04T23:07:18.343Z,8.67
2018-07-04T23:09:58.031Z,9.30
2018-07-04T23:12:37.556Z,9.40
2018-07-04T23:15:17.172Z,9.67
2018-07-04T23:17:56.930Z,9.30
2018-07-04T23:20:36.287Z,10.37
2018-07-04T23:23:15.878Z,9.37
2018-07-04T23:25:55.367Z,10.50
2018-07-04T23:28:35.076Z,10.47
2018-07-04T23:31:14.432Z,11.20
2018-07-04T23:33:54.028Z,10.97
2018-07-04T23:36:33.666Z,11.23
2018-07-04T23:39:13.260Z,12.30
2018-07-04T23:41:52.918Z,10.67
2018-07-04T23:44:32.537Z,11.40
2018-07-04T23:47:12.123Z,10.90
2018-07-04T23:49:52.258Z,12.00
2018-07-04T23:52:31.633Z,11.13
2018-07-04T23:55:11.252Z,11.43
2018-07-04T23:57:51.505Z,11.73
